Gaia — PC4584 — position and weather

sailwx.info

Track history (hours):
 
Tides and Currents Weather Stations Pressure Air Temp Water Temp Dewpoint Dewpoint Depression Visibility Wind Speed Wind Dir Waves Ship Positions

Gaia

Last reported at 2015-Aug-30 10:15 UTC. Time now 2015-Aug-30 20:01 UTC.
Position N 52°43' E 005°24'.

Length 12 m.

Type: Sailing vessel. MMSI: 244615031.

Date/timePositionNaut miles runAvg speedWind from/ knotsBaromVisibWave heightAir tempDewpointWater temp
2015-Aug-30 10:15N 52°43' E 005°24'4 4.8
2015-Aug-30 09:31N 52°42' E 005°18'0 0.4
2015-Aug-30 08:33N 52°42' E 005°17'0 0.0
2015-Aug-30 07:33N 52°42' E 005°17'0 0.0
2015-Aug-30 06:33N 52°42' E 005°17'0 0.0
2015-Aug-30 05:33N 52°42' E 005°17'0 0.0
2015-Aug-30 04:32N 52°42' E 005°17'0 0.0
2015-Aug-30 03:32N 52°42' E 005°17'0 0.0
2015-Aug-30 02:32N 52°42' E 005°17'0 0.0
2015-Aug-30 01:32N 52°42' E 005°17'0 0.0
2015-Aug-30 00:20N 52°42' E 005°17'0 0.0
2015-Aug-29 23:32N 52°42' E 005°17'0 0.0
2015-Aug-29 22:32N 52°42' E 005°17'0 0.0
2015-Aug-29 21:32N 52°42' E 005°17'0 0.0
2015-Aug-29 20:20N 52°42' E 005°17'0 0.0
2015-Aug-29 19:32N 52°42' E 005°17'0 0.0
2015-Aug-29 18:32N 52°42' E 005°17'0 0.0
2015-Aug-29 17:32N 52°42' E 005°17'0 0.0
2015-Aug-29 16:32N 52°42' E 005°17'0 0.0
2015-Aug-29 15:26N 52°42' E 005°17'0 0.0
2015-Aug-29 14:31N 52°42' E 005°17'0 0.0
2015-Aug-29 13:25N 52°42' E 005°17'0 0.0
2015-Aug-29 12:31N 52°42' E 005°17'0 0.0
2015-Aug-29 11:31N 52°42' E 005°17'0 0.0
2015-Aug-29 10:31N 52°42' E 005°17'1 0.6
2015-Aug-29 09:33N 52°42' E 005°18'0 0.0
2015-Aug-29 08:31N 52°42' E 005°18'0 0.0
2015-Aug-29 07:33N 52°42' E 005°18'0 0.0
2015-Aug-29 06:33N 52°42' E 005°18'0 0.0
2015-Aug-29 05:33N 52°42' E 005°18'0 0.0
2015-Aug-29 04:30N 52°42' E 005°18'0 0.0
2015-Aug-29 03:30N 52°42' E 005°18'0 0.0
2015-Aug-29 02:30N 52°42' E 005°18'0 0.0
2015-Aug-29 01:33N 52°42' E 005°18'0 0.0
2015-Aug-29 00:33N 52°42' E 005°18'0 0.0
2015-Aug-28 23:33N 52°42' E 005°18'0 0.0
2015-Aug-28 22:33N 52°42' E 005°18'0 0.0
2015-Aug-28 21:30N 52°42' E 005°18'0 0.0
2015-Aug-28 20:33N 52°42' E 005°18'0 0.0
2015-Aug-28 19:30N 52°42' E 005°18'0 0.0
2015-Aug-28 18:30N 52°42' E 005°18'0 0.2
2015-Aug-28 17:33N 52°42' E 005°18'  
2015-Aug-22 10:27N 52°47' E 005°21'24 1.0
2015-Aug-21 11:20N 53°10' E 005°24'11 3.4
2015-Aug-21 08:10N 53°19' E 005°14'3 4.1
2015-Aug-21 07:33N 53°22' E 005°13'0 0.1
2015-Aug-21 06:31N 53°22' E 005°13'0 0.0
2015-Aug-21 05:31N 53°22' E 005°13'0 0.0
2015-Aug-21 04:28N 53°22' E 005°13'0 0.0
2015-Aug-21 03:31N 53°22' E 005°13'0 0.0
2015-Aug-21 02:31N 53°22' E 005°13'0 0.0
2015-Aug-21 01:31N 53°22' E 005°14'0 0.0
2015-Aug-21 00:33N 53°22' E 005°13'0 0.0
2015-Aug-20 23:33N 53°22' E 005°14'0 0.0
2015-Aug-20 22:33N 53°22' E 005°13'0 0.0
2015-Aug-20 21:33N 53°22' E 005°14'0 0.0
2015-Aug-20 20:33N 53°22' E 005°13'0 0.0
2015-Aug-20 19:33N 53°22' E 005°13'0 0.0
2015-Aug-20 18:33N 53°22' E 005°13'0 0.0
2015-Aug-20 17:33N 53°22' E 005°13'0 0.0
2015-Aug-20 16:33N 53°22' E 005°13'0 0.0
2015-Aug-20 15:30N 53°22' E 005°13'0 0.0
2015-Aug-20 14:33N 53°22' E 005°13'0 0.0
2015-Aug-20 13:33N 53°22' E 005°13'0 0.0
2015-Aug-20 12:24N 53°22' E 005°13'0 0.0
2015-Aug-20 11:33N 53°22' E 005°13'0 0.0
2015-Aug-20 10:30N 53°22' E 005°13'  
Track history (hours):
 
Tides and Currents Weather Stations Pressure Air Temp Water Temp Dewpoint Dewpoint Depression Visibility Wind Speed Wind Dir Waves Ship Positions

Gaia

Last reported at 2015-Aug-30 10:15 UTC. Time now 2015-Aug-30 20:01 UTC.
Position N 52°43' E 005°24'.

Length 12 m.

Type: Sailing vessel. MMSI: 244615031.

Date/timePositionNaut miles runAvg speedWind from/ knotsBaromVisibWave heightAir tempDewpointWater temp
2015-Aug-30 10:15N 52°43' E 005°24'4 4.8
2015-Aug-30 09:31N 52°42' E 005°18'0 0.4
2015-Aug-30 08:33N 52°42' E 005°17'0 0.0
2015-Aug-30 07:33N 52°42' E 005°17'0 0.0
2015-Aug-30 06:33N 52°42' E 005°17'0 0.0
2015-Aug-30 05:33N 52°42' E 005°17'0 0.0
2015-Aug-30 04:32N 52°42' E 005°17'0 0.0
2015-Aug-30 03:32N 52°42' E 005°17'0 0.0
2015-Aug-30 02:32N 52°42' E 005°17'0 0.0
2015-Aug-30 01:32N 52°42' E 005°17'0 0.0
2015-Aug-30 00:20N 52°42' E 005°17'0 0.0
2015-Aug-29 23:32N 52°42' E 005°17'0 0.0
2015-Aug-29 22:32N 52°42' E 005°17'0 0.0
2015-Aug-29 21:32N 52°42' E 005°17'0 0.0
2015-Aug-29 20:20N 52°42' E 005°17'0 0.0
2015-Aug-29 19:32N 52°42' E 005°17'0 0.0
2015-Aug-29 18:32N 52°42' E 005°17'0 0.0
2015-Aug-29 17:32N 52°42' E 005°17'0 0.0
2015-Aug-29 16:32N 52°42' E 005°17'0 0.0
2015-Aug-29 15:26N 52°42' E 005°17'0 0.0
2015-Aug-29 14:31N 52°42' E 005°17'0 0.0
2015-Aug-29 13:25N 52°42' E 005°17'0 0.0
2015-Aug-29 12:31N 52°42' E 005°17'0 0.0
2015-Aug-29 11:31N 52°42' E 005°17'0 0.0
2015-Aug-29 10:31N 52°42' E 005°17'1 0.6
2015-Aug-29 09:33N 52°42' E 005°18'0 0.0
2015-Aug-29 08:31N 52°42' E 005°18'0 0.0
2015-Aug-29 07:33N 52°42' E 005°18'0 0.0
2015-Aug-29 06:33N 52°42' E 005°18'0 0.0
2015-Aug-29 05:33N 52°42' E 005°18'0 0.0
2015-Aug-29 04:30N 52°42' E 005°18'0 0.0
2015-Aug-29 03:30N 52°42' E 005°18'0 0.0
2015-Aug-29 02:30N 52°42' E 005°18'0 0.0
2015-Aug-29 01:33N 52°42' E 005°18'0 0.0
2015-Aug-29 00:33N 52°42' E 005°18'0 0.0
2015-Aug-28 23:33N 52°42' E 005°18'0 0.0
2015-Aug-28 22:33N 52°42' E 005°18'0 0.0
2015-Aug-28 21:30N 52°42' E 005°18'0 0.0
2015-Aug-28 20:33N 52°42' E 005°18'0 0.0
2015-Aug-28 19:30N 52°42' E 005°18'0 0.0
2015-Aug-28 18:30N 52°42' E 005°18'0 0.2
2015-Aug-28 17:33N 52°42' E 005°18'  
2015-Aug-22 10:27N 52°47' E 005°21'24 1.0
2015-Aug-21 11:20N 53°10' E 005°24'11 3.4
2015-Aug-21 08:10N 53°19' E 005°14'3 4.1
2015-Aug-21 07:33N 53°22' E 005°13'0 0.1
2015-Aug-21 06:31N 53°22' E 005°13'0 0.0
2015-Aug-21 05:31N 53°22' E 005°13'0 0.0
2015-Aug-21 04:28N 53°22' E 005°13'0 0.0
2015-Aug-21 03:31N 53°22' E 005°13'0 0.0
2015-Aug-21 02:31N 53°22' E 005°13'0 0.0
2015-Aug-21 01:31N 53°22' E 005°14'0 0.0
2015-Aug-21 00:33N 53°22' E 005°13'0 0.0
2015-Aug-20 23:33N 53°22' E 005°14'0 0.0
2015-Aug-20 22:33N 53°22' E 005°13'0 0.0
2015-Aug-20 21:33N 53°22' E 005°14'0 0.0
2015-Aug-20 20:33N 53°22' E 005°13'0 0.0
2015-Aug-20 19:33N 53°22' E 005°13'0 0.0
2015-Aug-20 18:33N 53°22' E 005°13'0 0.0
2015-Aug-20 17:33N 53°22' E 005°13'0 0.0
2015-Aug-20 16:33N 53°22' E 005°13'0 0.0
2015-Aug-20 15:30N 53°22' E 005°13'0 0.0
2015-Aug-20 14:33N 53°22' E 005°13'0 0.0
2015-Aug-20 13:33N 53°22' E 005°13'0 0.0
2015-Aug-20 12:24N 53°22' E 005°13'0 0.0
2015-Aug-20 11:33N 53°22' E 005°13'0 0.0
2015-Aug-20 10:30N 53°22' E 005°13'  

Dump ship's entire track history